Impacts TAF Board INFO
FOR SITUATIONAL AWARENESS. NOT TO BE USED FOR FLIGHT PLANNING PURPOSES.
IDs:

KMSP - Minneapolis-St Paul, MN, US

Issued at 1454 UTC 16 Jan 2018
Updated at 1504 UTC 16 Jan 2018
Potential Impact None Slight Moderate High
Time<<17/16Z 17/17Z 17/18Z 17/19Z 17/20Z 17/21Z 17/22Z 17/23Z 18/00Z 18/01Z 18/02Z 18/03Z 18/04Z
Type PRVL PRVL
VIS >6 >6
CIG -- --
Cover SKC SKC
FltCat VFR VFR
WX -- --
WDir 200 200
WSpd 5 5
WGst -- --

Raw TAF
KMSP 161454Z 1615/1718 32010KT P6SM BKN015
  FM161800 30007KT P6SM SCT018
  FM162200 25004KT P6SM SCT020 BKN050
  FM170400 22005KT P6SM SCT250
  FM170900 20005KT P6SM SKC


METAR Board
Radar Display
Forecast Discussion

FOR SITUATIONAL AWARENESS. NOT TO BE USED FOR FLIGHT PLANNING PURPOSES.